createdAt,value
2022-11-08T00:01:33.514Z,98098.13
2022-11-08T00:03:36.729Z,98092.38
2022-11-08T00:05:57.404Z,98093.31
2022-11-08T00:08:22.108Z,98091.72
2022-11-08T00:10:42.706Z,98094.44
2022-11-08T00:13:03.570Z,98091.91
2022-11-08T00:15:09.378Z,98086.00
2022-11-08T00:17:12.662Z,98086.09
2022-11-08T00:19:15.651Z,98085.34
2022-11-08T00:21:18.706Z,98081.16
2022-11-08T00:23:21.781Z,98092.53
2022-11-08T00:25:24.747Z,98085.75
2022-11-08T00:27:28.593Z,98086.84
2022-11-08T00:29:31.681Z,98090.59
2022-11-08T00:31:36.061Z,98089.00
2022-11-08T00:33:39.120Z,98095.03
2022-11-08T00:35:42.068Z,98091.81
2022-11-08T00:37:45.049Z,98083.19
2022-11-08T00:39:48.435Z,98077.22
2022-11-08T00:41:51.474Z,98079.19
2022-11-08T00:43:54.464Z,98075.00
2022-11-08T00:45:57.454Z,98075.09
2022-11-08T00:48:01.809Z,98073.44
2022-11-08T00:50:05.417Z,98072.78
2022-11-08T00:52:08.562Z,98072.78
2022-11-08T00:54:15.201Z,98067.72
2022-11-08T00:56:18.365Z,98074.56
2022-11-08T00:58:26.248Z,98068.53
2022-11-08T01:00:30.530Z,98062.59
2022-11-08T01:02:33.602Z,98065.28
2022-11-08T01:04:38.000Z,98059.22
2022-11-08T01:06:41.607Z,98054.97
2022-11-08T01:08:44.953Z,98065.28
2022-11-08T01:10:50.080Z,98055.91
2022-11-08T01:12:53.044Z,98054.97
2022-11-08T01:14:56.184Z,98055.91
2022-11-08T01:16:59.252Z,98052.47
2022-11-08T01:19:03.123Z,98051.63
2022-11-08T01:21:08.052Z,98046.41
2022-11-08T01:23:12.079Z,98051.81
2022-11-08T01:25:15.014Z,98040.59
2022-11-08T01:27:18.133Z,98047.66
2022-11-08T01:29:21.249Z,98045.06
2022-11-08T01:31:26.093Z,98040.06
2022-11-08T01:33:29.274Z,98037.53
2022-11-08T01:35:32.400Z,98043.66
2022-11-08T01:37:36.730Z,98041.97
2022-11-08T01:39:39.983Z,98033.44
2022-11-08T01:41:43.238Z,98030.94
2022-11-08T01:43:47.787Z,98028.44
2022-11-08T01:46:38.555Z,98025.94
2022-11-08T01:48:44.813Z,98033.00
2022-11-08T01:50:47.987Z,98029.75
2022-11-08T01:52:53.808Z,98023.81
2022-11-08T01:55:10.523Z,98020.56
2022-11-08T01:57:18.122Z,98013.78
2022-11-08T01:59:21.093Z,98018.25
2022-11-08T02:01:24.325Z,98017.44
2022-11-08T02:03:28.235Z,98010.56
2022-11-08T02:05:31.831Z,98010.66
2022-11-08T02:07:35.630Z,98013.34
2022-11-08T02:09:41.953Z,97997.03
2022-11-08T02:11:45.506Z,97997.84
2022-11-08T02:13:48.539Z,97985.97
2022-11-08T02:15:51.860Z,97992.94
2022-11-08T02:17:55.244Z,97995.63
2022-11-08T02:19:58.340Z,97983.63
2022-11-08T02:22:05.126Z,97979.41
2022-11-08T02:24:11.114Z,97982.91
2022-11-08T02:26:14.669Z,97982.09
2022-11-08T02:28:18.099Z,97971.13
2022-11-08T02:30:21.438Z,97969.47
2022-11-08T02:32:25.533Z,97965.28
2022-11-08T02:34:30.886Z,97971.50
2022-11-08T02:36:33.902Z,97968.16
2022-11-08T02:38:40.731Z,97965.56
2022-11-08T02:40:48.618Z,97960.47
2022-11-08T02:42:51.752Z,97959.56
2022-11-08T02:44:54.817Z,97961.38
2022-11-08T02:46:58.677Z,97955.38
2022-11-08T02:49:01.585Z,97953.69
2022-11-08T02:51:04.935Z,97950.16
2022-11-08T02:53:09.319Z,97950.34
2022-11-08T02:55:12.278Z,97945.16
2022-11-08T02:57:16.683Z,97942.66
2022-11-08T02:59:19.709Z,97947.84
2022-11-08T03:01:22.856Z,97944.44
2022-11-08T03:03:25.956Z,97938.41
2022-11-08T03:05:29.820Z,97941.09
2022-11-08T03:07:33.190Z,97945.53
2022-11-08T03:09:36.151Z,97938.69
2022-11-08T03:11:39.126Z,97937.84
2022-11-08T03:13:43.462Z,97936.25
2022-11-08T03:15:46.403Z,97939.66
2022-11-08T03:17:49.389Z,97945.88
2022-11-08T03:19:53.649Z,97945.88
2022-11-08T03:21:56.808Z,97945.13
2022-11-08T03:23:59.812Z,97938.34
2022-11-08T03:26:03.864Z,97933.25
2022-11-08T03:28:08.906Z,97936.72
2022-11-08T03:30:13.561Z,97929.84
2022-11-08T03:32:17.381Z,97928.16
2022-11-08T03:34:20.361Z,97936.03
2022-11-08T03:36:23.359Z,97934.50
2022-11-08T03:38:26.662Z,97929.38
2022-11-08T03:40:29.870Z,97931.22
2022-11-08T03:42:32.888Z,97931.31
2022-11-08T03:44:35.903Z,97940.22
2022-11-08T03:46:40.300Z,97925.56
2022-11-08T03:48:43.572Z,97928.25
2022-11-08T03:50:46.807Z,97936.88
2022-11-08T03:52:51.253Z,97939.56
2022-11-08T03:54:54.346Z,97943.09
2022-11-08T03:56:57.269Z,97943.09
2022-11-08T03:59:00.327Z,97933.63
2022-11-08T04:01:05.034Z,97937.16
2022-11-08T04:03:10.658Z,97931.94
2022-11-08T04:05:14.608Z,97934.63
2022-11-08T04:07:17.572Z,97935.69
2022-11-08T04:09:21.805Z,97934.00
2022-11-08T04:11:42.456Z,97931.59
2022-11-08T04:14:03.138Z,97928.16
2022-11-08T04:16:06.748Z,97933.44
2022-11-08T04:18:28.729Z,97930.84
2022-11-08T04:20:49.782Z,97923.97
2022-11-08T04:22:52.947Z,97931.03
2022-11-08T04:24:55.954Z,97923.34
2022-11-08T04:26:58.908Z,97926.84
2022-11-08T04:29:03.055Z,97928.63
2022-11-08T04:31:07.542Z,97928.72
2022-11-08T04:33:11.864Z,97924.53
2022-11-08T04:35:14.880Z,97931.56
2022-11-08T04:37:17.825Z,97930.75
2022-11-08T04:39:20.760Z,97930.66
2022-11-08T04:41:25.402Z,97930.66
2022-11-08T04:43:28.386Z,97919.53
2022-11-08T04:45:31.418Z,97919.53
2022-11-08T04:47:39.394Z,97917.69
2022-11-08T04:49:45.729Z,97919.53
2022-11-08T04:51:48.975Z,97912.69
2022-11-08T04:53:52.115Z,97917.97
2022-11-08T04:56:00.605Z,97910.19
2022-11-08T04:58:03.693Z,97911.91
2022-11-08T05:00:09.237Z,97899.81
2022-11-08T05:02:12.350Z,97898.03
2022-11-08T05:04:15.835Z,97892.84
2022-11-08T05:06:21.641Z,97891.16
2022-11-08T05:08:24.607Z,97886.91
2022-11-08T05:10:27.614Z,97880.22
2022-11-08T05:12:30.590Z,97866.53
2022-11-08T05:14:33.730Z,97870.03
2022-11-08T05:16:36.947Z,97872.63
2022-11-08T05:18:41.813Z,97867.53
2022-11-08T05:21:02.473Z,97872.63
2022-11-08T05:23:24.648Z,97863.16
2022-11-08T05:25:27.711Z,97876.22
2022-11-08T05:27:30.998Z,97870.50
2022-11-08T05:29:38.662Z,97868.72
2022-11-08T05:31:45.204Z,97868.06
2022-11-08T05:33:49.142Z,97866.44
2022-11-08T05:35:52.788Z,97870.03
2022-11-08T05:37:55.831Z,97875.41
2022-11-08T05:40:00.236Z,97875.41
2022-11-08T05:42:05.326Z,97874.66
2022-11-08T05:44:08.344Z,97873.72
2022-11-08T05:46:11.687Z,97876.50
2022-11-08T05:48:14.901Z,97875.84
2022-11-08T05:50:19.534Z,97881.03
2022-11-08T05:52:22.852Z,97875.09
2022-11-08T05:54:26.051Z,97873.34
2022-11-08T05:56:30.468Z,97872.53
2022-11-08T05:58:35.053Z,97878.53
2022-11-08T06:00:38.094Z,97870.66
2022-11-08T06:02:41.481Z,97868.78
2022-11-08T06:04:44.472Z,97878.34
2022-11-08T06:06:47.510Z,97874.84
2022-11-08T06:08:52.929Z,97879.09
2022-11-08T06:11:03.203Z,97876.50
2022-11-08T06:13:07.676Z,97878.16
2022-11-08T06:15:11.443Z,97878.81
2022-11-08T06:17:14.457Z,97880.66
2022-11-08T06:19:17.599Z,97877.16
2022-11-08T06:21:21.758Z,97879.00
2022-11-08T06:23:25.030Z,97874.66
2022-11-08T06:25:28.386Z,97868.53
2022-11-08T06:27:32.057Z,97867.63
2022-11-08T06:29:36.500Z,97869.28
2022-11-08T06:31:43.065Z,97874.47
2022-11-08T06:33:46.582Z,97870.13
2022-11-08T06:35:49.826Z,97864.09
2022-11-08T06:37:56.485Z,97865.84
2022-11-08T06:40:03.056Z,97873.34
2022-11-08T06:42:06.191Z,97871.53
2022-11-08T06:44:09.417Z,97873.09
2022-11-08T06:46:13.955Z,97882.81
2022-11-08T06:48:17.093Z,97882.63
2022-11-08T06:50:20.114Z,97884.41
2022-11-08T06:52:23.177Z,97883.75
2022-11-08T06:54:27.094Z,97884.22
2022-11-08T06:56:30.326Z,97889.88
2022-11-08T06:58:33.449Z,97881.22
2022-11-08T07:00:36.488Z,97884.13
2022-11-08T07:02:41.017Z,97884.31
2022-11-08T07:04:44.052Z,97878.91
2022-11-08T07:06:47.085Z,97883.09
2022-11-08T07:08:51.117Z,97884.06
2022-11-08T07:10:55.577Z,97878.84
2022-11-08T07:13:00.169Z,97880.75
2022-11-08T07:15:03.400Z,97876.91
2022-11-08T07:17:06.433Z,97873.69
2022-11-08T07:19:11.095Z,97880.84
2022-11-08T07:21:14.261Z,97874.81
2022-11-08T07:23:17.333Z,97885.00
2022-11-08T07:25:20.625Z,97891.50
2022-11-08T07:27:23.652Z,97877.69
2022-11-08T07:29:26.576Z,97881.28
2022-11-08T07:31:29.686Z,97878.88
2022-11-08T07:33:32.661Z,97890.88
2022-11-08T07:35:37.117Z,97896.78
2022-11-08T07:37:40.340Z,97895.66
2022-11-08T07:39:43.347Z,97902.13
2022-11-08T07:41:46.549Z,97910.72
2022-11-08T07:43:49.608Z,97908.47
2022-11-08T07:45:57.371Z,97912.66
2022-11-08T07:48:00.944Z,97904.00
2022-11-08T07:50:04.460Z,97910.38
2022-11-08T07:52:08.918Z,97907.59
2022-11-08T07:54:12.235Z,97912.59
2022-11-08T07:56:15.240Z,97914.69
2022-11-08T07:58:18.601Z,97913.41
2022-11-08T08:00:21.907Z,97923.31
2022-11-08T08:02:25.100Z,97918.00
2022-11-08T08:04:30.111Z,97918.25
2022-11-08T08:06:33.153Z,97916.97
2022-11-08T08:08:37.565Z,97918.97
2022-11-08T08:10:41.213Z,97916.03
2022-11-08T08:12:44.176Z,97918.13
2022-11-08T08:14:47.202Z,97912.06
2022-11-08T08:16:51.069Z,97913.84
2022-11-08T08:18:56.557Z,97906.34
2022-11-08T08:21:00.039Z,97908.03
2022-11-08T08:23:02.969Z,97914.19
2022-11-08T08:25:08.564Z,97904.97
2022-11-08T08:27:12.266Z,97903.41
2022-11-08T08:29:15.361Z,97888.88
2022-11-08T08:31:18.485Z,97858.25
2022-11-08T08:33:30.043Z,97847.41
2022-11-08T08:35:34.870Z,97856.13
2022-11-08T08:37:37.901Z,97864.81
2022-11-08T08:39:40.873Z,97859.66
2022-11-08T08:41:45.250Z,97868.22
2022-11-08T08:43:48.327Z,97874.31
2022-11-08T08:45:51.348Z,97880.00
2022-11-08T08:47:54.783Z,97882.97
2022-11-08T08:49:57.822Z,97893.22
2022-11-08T08:52:00.905Z,97901.06
2022-11-08T08:54:04.058Z,97903.41
2022-11-08T08:56:07.979Z,97912.19
2022-11-08T08:58:12.383Z,97906.81
2022-11-08T09:02:42.482Z,97916.09
2022-11-08T09:04:45.969Z,97913.06
2022-11-08T09:06:49.123Z,97920.13
2022-11-08T09:08:52.179Z,97913.13
2022-11-08T09:10:55.602Z,97917.03
2022-11-08T09:12:58.707Z,97914.22
2022-11-08T09:15:03.183Z,97902.25
2022-11-08T09:17:06.287Z,97904.06
2022-11-08T09:19:09.324Z,97911.72
2022-11-08T09:21:12.439Z,97914.97
2022-11-08T09:23:16.832Z,97914.97
2022-11-08T09:25:20.473Z,97917.59
2022-11-08T09:27:23.668Z,97919.84
2022-11-08T09:29:27.032Z,97922.91
2022-11-08T09:31:31.452Z,97930.88
2022-11-08T09:33:34.564Z,97935.69
2022-11-08T09:35:37.587Z,97942.31
2022-11-08T09:37:42.291Z,97946.66
2022-11-08T09:39:47.256Z,97945.56
2022-11-08T09:42:09.801Z,97948.94
2022-11-08T09:44:26.732Z,97940.31
2022-11-08T09:46:36.848Z,97945.34
2022-11-08T09:48:42.923Z,97945.44
2022-11-08T09:50:46.475Z,97949.66
2022-11-08T09:52:52.510Z,97947.69
2022-11-08T09:55:05.826Z,97941.31
2022-11-08T09:57:15.938Z,97940.41
2022-11-08T09:59:31.345Z,97948.50
2022-11-08T10:01:37.153Z,97951.41
2022-11-08T10:03:40.548Z,97951.19
2022-11-08T10:05:45.878Z,97955.78
2022-11-08T10:07:55.460Z,97951.78
2022-11-08T10:10:14.719Z,97955.69
2022-11-08T10:12:22.758Z,97956.22
2022-11-08T10:14:34.024Z,97946.22
2022-11-08T10:16:44.520Z,97953.19
2022-11-08T10:19:06.689Z,97948.22
2022-11-08T10:21:14.760Z,97948.75
2022-11-08T10:23:22.637Z,97939.78
2022-11-08T10:25:28.110Z,97945.44
2022-11-08T10:27:34.576Z,97941.72
2022-11-08T10:29:39.540Z,97938.28
2022-11-08T10:31:44.119Z,97939.91
2022-11-08T10:33:50.646Z,97934.66
2022-11-08T10:36:02.164Z,97929.41
2022-11-08T10:38:16.372Z,97929.41
2022-11-08T10:40:25.678Z,97928.31
2022-11-08T10:42:36.118Z,97929.56
2022-11-08T10:44:39.425Z,97925.66
2022-11-08T10:46:45.852Z,97920.13
2022-11-08T10:48:48.865Z,97926.25
2022-11-08T10:50:53.390Z,97922.63
2022-11-08T10:52:59.921Z,97919.47
2022-11-08T10:55:04.612Z,97924.56
2022-11-08T10:57:07.854Z,97914.03
2022-11-08T10:59:30.129Z,97910.84
2022-11-08T11:01:33.204Z,97905.59
2022-11-08T11:03:37.557Z,97906.56
2022-11-08T11:05:43.118Z,97893.41
2022-11-08T11:07:47.591Z,97892.16
2022-11-08T11:09:50.563Z,97890.78
2022-11-08T11:11:57.831Z,97893.81
2022-11-08T11:14:10.820Z,97896.16
2022-11-08T11:16:16.155Z,97889.22
2022-11-08T11:18:26.897Z,97888.78
2022-11-08T11:20:31.392Z,97894.81
2022-11-08T11:22:34.941Z,97890.25
2022-11-08T11:24:47.954Z,97892.88
2022-11-08T11:27:01.929Z,97887.09
2022-11-08T11:29:18.891Z,97883.59
2022-11-08T11:31:22.522Z,97883.13
2022-11-08T11:33:27.113Z,97886.03
2022-11-08T11:35:37.310Z,97888.50
2022-11-08T11:37:42.344Z,97878.50
2022-11-08T11:39:55.114Z,97875.72
2022-11-08T11:42:24.181Z,97877.69
2022-11-08T11:44:29.493Z,97877.72
2022-11-08T11:46:41.139Z,97872.63
2022-11-08T11:48:47.762Z,97872.63
2022-11-08T11:50:52.327Z,97867.66
2022-11-08T11:52:56.050Z,97863.66
2022-11-08T11:54:59.086Z,97863.66
2022-11-08T11:57:05.252Z,97861.03
2022-11-08T11:59:40.203Z,97852.16
2022-11-08T12:01:53.950Z,97858.13
2022-11-08T12:04:12.338Z,97858.81
2022-11-08T12:06:30.699Z,97857.56
2022-11-08T12:08:40.839Z,97851.16
2022-11-08T12:10:58.238Z,97852.22
2022-11-08T12:13:07.752Z,97856.91
2022-11-08T12:15:15.365Z,97851.88
2022-11-08T12:17:31.817Z,97861.16
2022-11-08T12:19:41.647Z,97859.06
2022-11-08T12:21:50.194Z,97856.41
2022-11-08T12:24:05.590Z,97855.97
2022-11-08T12:26:14.788Z,97857.88
2022-11-08T12:28:42.041Z,97856.44
2022-11-08T12:30:50.939Z,97853.34
2022-11-08T12:33:08.174Z,97852.75
2022-11-08T12:35:22.986Z,97849.69
2022-11-08T12:37:34.870Z,97842.19
2022-11-08T12:39:45.119Z,97841.88
2022-11-08T12:41:57.045Z,97837.44
2022-11-08T12:44:24.384Z,97837.28
2022-11-08T12:46:29.697Z,97834.66
2022-11-08T12:48:55.122Z,97831.84
2022-11-08T12:51:06.727Z,97830.03
2022-11-08T12:53:30.258Z,97829.75
2022-11-08T12:55:36.305Z,97830.81
2022-11-08T12:57:39.661Z,97833.00
2022-11-08T12:59:45.343Z,97822.28
2022-11-08T13:01:49.195Z,97815.91
2022-11-08T13:04:05.872Z,97816.44
2022-11-08T13:06:13.109Z,97816.44
2022-11-08T13:08:25.944Z,97807.53
2022-11-08T13:10:34.303Z,97807.22
2022-11-08T13:12:45.612Z,97805.66
2022-11-08T13:14:48.878Z,97805.03
2022-11-08T13:17:23.026Z,97803.63
2022-11-08T13:19:29.748Z,97802.09
2022-11-08T13:21:43.070Z,97806.72
2022-11-08T13:23:49.658Z,97803.38
2022-11-08T13:25:53.250Z,97799.91
2022-11-08T13:27:56.395Z,97802.41
2022-11-08T13:30:04.032Z,97802.09
2022-11-08T13:32:09.930Z,97803.06
2022-11-08T13:34:40.380Z,97791.03
2022-11-08T13:36:50.741Z,97794.81
2022-11-08T13:39:02.229Z,97794.13
2022-11-08T13:41:21.199Z,97799.91
2022-11-08T13:43:27.674Z,97797.78
2022-11-08T13:45:33.228Z,97800.44
2022-11-08T13:47:59.631Z,97794.34
2022-11-08T13:50:33.832Z,97797.13
2022-11-08T13:52:45.683Z,97796.47
2022-11-08T13:54:53.664Z,97801.03
2022-11-08T13:56:57.344Z,97791.66
2022-11-08T13:59:00.445Z,97795.41
2022-11-08T14:01:04.987Z,97798.34
2022-11-08T14:03:41.580Z,97795.06
2022-11-08T14:05:46.455Z,97793.69
2022-11-08T14:08:08.792Z,97789.53
2022-11-08T14:10:19.476Z,97781.09
2022-11-08T14:12:29.889Z,97775.66
2022-11-08T14:14:41.569Z,97781.91
2022-11-08T14:16:53.662Z,97778.59
2022-11-08T14:19:07.291Z,97770.03
2022-11-08T14:21:17.177Z,97771.31
2022-11-08T14:23:26.987Z,97773.44
2022-11-08T14:25:32.993Z,97772.75
2022-11-08T14:27:38.525Z,97771.25
2022-11-08T14:29:42.224Z,97771.41
2022-11-08T14:31:45.748Z,97778.63
2022-11-08T14:33:49.248Z,97777.28
2022-11-08T14:35:57.134Z,97775.91
2022-11-08T14:38:00.899Z,97780.66
2022-11-08T14:40:04.574Z,97781.09
2022-11-08T14:42:19.230Z,97776.81
2022-11-08T14:44:22.896Z,97777.97
2022-11-08T14:46:30.860Z,97775.63
2022-11-08T14:48:34.344Z,97762.25
2022-11-08T14:50:37.863Z,97770.44
2022-11-08T14:52:41.385Z,97765.63
2022-11-08T14:54:47.225Z,97773.66
2022-11-08T14:56:50.425Z,97765.91
2022-11-08T14:58:56.253Z,97764.41
2022-11-08T15:01:00.843Z,97772.59
2022-11-08T15:03:05.454Z,97772.75
2022-11-08T15:05:34.643Z,97761.84
2022-11-08T15:07:38.909Z,97763.91
2022-11-08T15:09:41.923Z,97763.41
2022-11-08T15:11:52.722Z,97753.16
2022-11-08T15:14:00.137Z,97757.75
2022-11-08T15:16:05.282Z,97757.09
2022-11-08T15:18:15.613Z,97752.41
2022-11-08T15:20:23.057Z,97752.84
2022-11-08T15:22:28.443Z,97753.13
2022-11-08T15:24:40.375Z,97755.03
2022-11-08T15:27:02.378Z,97751.75
2022-11-08T15:29:09.590Z,97742.47
2022-11-08T15:31:14.831Z,97741.00
2022-11-08T15:33:23.220Z,97737.78
2022-11-08T15:35:33.722Z,97740.72
2022-11-08T15:37:38.281Z,97748.91
2022-11-08T15:39:41.449Z,97747.56
2022-11-08T15:41:44.683Z,97745.22
2022-11-08T15:43:50.122Z,97742.34
2022-11-08T15:45:55.385Z,97747.34
2022-11-08T15:48:03.477Z,97746.00
2022-11-08T15:50:15.556Z,97741.16
2022-11-08T15:52:21.468Z,97743.38
2022-11-08T15:54:25.740Z,97736.91
2022-11-08T15:56:28.770Z,97737.50
2022-11-08T15:58:33.271Z,97737.09
2022-11-08T16:00:38.396Z,97738.34
2022-11-08T16:02:43.301Z,97729.09
2022-11-08T16:04:46.502Z,97729.66
2022-11-08T16:06:49.802Z,97734.66
2022-11-08T16:08:52.927Z,97730.78
2022-11-08T16:11:00.537Z,97738.41
2022-11-08T16:13:04.099Z,97741.44
2022-11-08T16:15:10.059Z,97734.25
2022-11-08T16:17:15.186Z,97737.44
2022-11-08T16:19:22.070Z,97739.81
2022-11-08T16:21:25.203Z,97734.97
2022-11-08T16:23:28.291Z,97738.84
2022-11-08T16:25:35.193Z,97744.69
2022-11-08T16:27:41.265Z,97738.31
2022-11-08T16:29:44.327Z,97745.50
2022-11-08T16:31:47.761Z,97743.31
2022-11-08T16:33:53.943Z,97749.78
2022-11-08T16:35:59.848Z,97747.56
2022-11-08T16:38:02.886Z,97751.56
2022-11-08T16:40:15.522Z,97743.28
2022-11-08T16:42:18.667Z,97751.28
2022-11-08T16:44:22.979Z,97748.25
2022-11-08T16:46:26.221Z,97746.03
2022-11-08T16:48:29.336Z,97744.91
2022-11-08T16:50:32.535Z,97755.81
2022-11-08T16:52:37.251Z,97750.16
2022-11-08T16:54:40.682Z,97747.78
2022-11-08T16:56:44.232Z,97752.50
2022-11-08T16:58:47.339Z,97753.03
2022-11-08T17:00:50.448Z,97749.91
2022-11-08T17:02:54.473Z,97748.56
2022-11-08T17:04:57.923Z,97745.38
2022-11-08T17:07:01.264Z,97740.66
2022-11-08T17:09:05.741Z,97733.19
2022-11-08T17:11:08.965Z,97731.81
2022-11-08T17:13:15.001Z,97724.59
2022-11-08T17:15:20.467Z,97725.69
2022-11-08T17:17:23.639Z,97729.69
2022-11-08T17:19:26.821Z,97726.50
2022-11-08T17:21:44.191Z,97729.38
2022-11-08T17:23:48.416Z,97730.59
2022-11-08T17:25:52.928Z,97731.69
2022-11-08T17:27:55.971Z,97730.88
2022-11-08T17:30:00.175Z,97724.09
2022-11-08T17:32:03.408Z,97729.47
2022-11-08T17:34:06.715Z,97733.19
2022-11-08T17:36:11.546Z,97731.66
2022-11-08T17:38:14.817Z,97731.09
2022-11-08T17:40:18.142Z,97730.06
2022-11-08T17:42:23.400Z,97731.28
2022-11-08T17:44:26.671Z,97736.78
2022-11-08T17:46:29.826Z,97741.31
2022-11-08T17:48:34.301Z,97741.72
2022-11-08T17:50:37.446Z,97741.16
2022-11-08T17:52:40.510Z,97746.66
2022-11-08T17:54:44.563Z,97745.22
2022-11-08T17:56:50.049Z,97747.28
2022-11-08T17:58:54.448Z,97743.13
2022-11-08T18:00:59.321Z,97746.97
2022-11-08T18:03:02.527Z,97746.38
2022-11-08T18:05:06.393Z,97754.34
2022-11-08T18:07:09.769Z,97751.19
2022-11-08T18:09:12.988Z,97755.59
2022-11-08T18:11:16.182Z,97746.19
2022-11-08T18:13:20.280Z,97740.38
2022-11-08T18:15:25.405Z,97735.38
2022-11-08T18:17:28.579Z,97747.56
2022-11-08T18:19:32.247Z,97742.53
2022-11-08T18:21:35.582Z,97743.59
2022-11-08T18:23:40.764Z,97738.63
2022-11-08T18:25:48.422Z,97739.69
2022-11-08T18:27:51.485Z,97741.63
2022-11-08T18:29:54.824Z,97747.78
2022-11-08T18:32:01.725Z,97747.09
2022-11-08T18:34:04.976Z,97751.53
2022-11-08T18:36:10.288Z,97742.25
2022-11-08T18:38:14.426Z,97753.91
2022-11-08T18:40:17.987Z,97751.41
2022-11-08T18:42:21.108Z,97741.19
2022-11-08T18:44:24.227Z,97741.69
2022-11-08T18:46:28.935Z,97748.97
2022-11-08T18:48:35.641Z,97746.47
2022-11-08T18:50:38.805Z,97743.16
2022-11-08T18:52:45.467Z,97749.47
2022-11-08T18:54:48.652Z,97753.88
2022-11-08T18:56:52.164Z,97754.81
2022-11-08T18:58:55.310Z,97758.53
2022-11-08T19:00:58.905Z,97757.00
2022-11-08T19:03:02.144Z,97762.34
2022-11-08T19:05:07.038Z,97759.84
2022-11-08T19:07:10.198Z,97761.75
2022-11-08T19:09:13.595Z,97760.22
2022-11-08T19:11:20.534Z,97757.03
2022-11-08T19:13:25.998Z,97764.38
2022-11-08T19:15:29.149Z,97753.34
2022-11-08T19:17:35.296Z,97751.09
2022-11-08T19:19:38.388Z,97753.97
2022-11-08T19:21:43.830Z,97755.31
2022-11-08T19:23:47.430Z,97750.31
2022-11-08T19:26:01.357Z,97762.78
2022-11-08T19:28:05.877Z,97754.22
2022-11-08T19:30:09.861Z,97749.25
2022-11-08T19:32:13.113Z,97750.19
2022-11-08T19:34:17.846Z,97746.06
2022-11-08T19:36:23.052Z,97744.50
2022-11-08T19:38:27.724Z,97745.44
2022-11-08T19:40:32.642Z,97749.84
2022-11-08T19:42:35.713Z,97750.78
2022-11-08T19:44:38.972Z,97750.78
2022-11-08T19:46:43.212Z,97750.09
2022-11-08T19:48:48.061Z,97750.09
2022-11-08T19:50:51.682Z,97754.72
2022-11-08T19:52:55.424Z,97750.31
2022-11-08T19:54:59.896Z,97749.63
2022-11-08T19:57:04.840Z,97750.44
2022-11-08T19:59:08.946Z,97750.56
2022-11-08T20:01:14.652Z,97750.69
2022-11-08T20:03:17.718Z,97742.72
2022-11-08T20:05:20.846Z,97741.78
2022-11-08T20:07:24.344Z,97747.25
2022-11-08T20:09:30.820Z,97748.31
2022-11-08T20:11:37.581Z,97755.09
2022-11-08T20:13:40.704Z,97763.75
2022-11-08T20:15:43.932Z,97762.81
2022-11-08T20:17:47.399Z,97758.41
2022-11-08T20:19:52.054Z,97767.31
2022-11-08T20:21:56.508Z,97761.25
2022-11-08T20:23:59.848Z,97762.09
2022-11-08T20:26:03.652Z,97762.19
2022-11-08T20:28:08.622Z,97761.38
2022-11-08T20:30:12.985Z,97766.59
2022-11-08T20:32:16.549Z,97763.28
2022-11-08T20:34:19.773Z,97764.94
2022-11-08T20:36:24.834Z,97766.03
2022-11-08T20:38:28.306Z,97769.44
2022-11-08T20:40:31.510Z,97775.63
2022-11-08T20:42:34.668Z,97779.09
2022-11-08T20:44:40.843Z,97767.91
2022-11-08T20:46:43.987Z,97767.91
2022-11-08T20:48:51.697Z,97766.84
2022-11-08T20:50:58.040Z,97772.06
2022-11-08T20:53:03.639Z,97776.69
2022-11-08T20:55:07.268Z,97776.47
2022-11-08T20:57:10.605Z,97772.06
2022-11-08T20:59:14.850Z,97773.75
2022-11-08T21:01:20.908Z,97780.59
2022-11-08T21:03:24.852Z,97781.56
2022-11-08T21:05:28.074Z,97792.72
2022-11-08T21:08:01.998Z,97783.09
2022-11-08T21:10:07.866Z,97778.97
2022-11-08T21:12:17.527Z,97780.38
2022-11-08T21:14:21.179Z,97782.97
2022-11-08T21:16:30.974Z,97770.78
2022-11-08T21:18:36.744Z,97765.53
2022-11-08T21:20:40.191Z,97762.09
2022-11-08T21:22:43.396Z,97765.66
2022-11-08T21:24:47.629Z,97766.50
2022-11-08T21:26:50.679Z,97775.25
2022-11-08T21:28:53.793Z,97776.94
2022-11-08T21:30:58.943Z,97773.28
2022-11-08T21:33:03.522Z,97774.91
2022-11-08T21:35:07.406Z,97766.94
2022-11-08T21:37:13.195Z,97762.59
2022-11-08T21:39:16.559Z,97770.41
2022-11-08T21:41:19.609Z,97768.16
2022-11-08T21:43:23.510Z,97767.19
2022-11-08T21:45:26.935Z,97772.28
2022-11-08T21:47:30.691Z,97760.31
2022-11-08T21:49:35.176Z,97755.81
2022-11-08T21:51:39.322Z,97756.63
2022-11-08T21:53:52.383Z,97760.22
2022-11-08T21:55:58.050Z,97754.97
2022-11-08T21:58:02.614Z,97758.53
2022-11-08T22:00:07.178Z,97753.44
2022-11-08T22:02:11.732Z,97770.66
2022-11-08T22:04:14.910Z,97768.28
2022-11-08T22:06:21.468Z,97770.28
2022-11-08T22:08:24.805Z,97775.63
2022-11-08T22:10:28.209Z,97772.31
2022-11-08T22:12:31.672Z,97768.88
2022-11-08T22:14:35.357Z,97778.56
2022-11-08T22:16:38.910Z,97786.53
2022-11-08T22:19:03.691Z,97791.00
2022-11-08T22:21:23.033Z,97790.31
2022-11-08T22:23:27.949Z,97793.03
2022-11-08T22:25:31.178Z,97792.41
2022-11-08T22:27:34.949Z,97799.66
2022-11-08T22:29:38.055Z,97788.41
2022-11-08T22:31:42.354Z,97786.03
2022-11-08T22:33:48.308Z,97786.03
2022-11-08T22:35:51.584Z,97782.44
2022-11-08T22:37:54.798Z,97793.16
2022-11-08T22:39:59.681Z,97789.81
2022-11-08T22:42:02.810Z,97793.38
2022-11-08T22:44:11.750Z,97793.50
2022-11-08T22:46:16.282Z,97799.66
2022-11-08T22:48:19.796Z,97791.00
2022-11-08T22:50:23.087Z,97785.78
2022-11-08T22:52:26.240Z,97790.16
2022-11-08T22:54:29.507Z,97788.63
2022-11-08T22:56:34.011Z,97788.84
2022-11-08T22:58:37.564Z,97789.78
2022-11-08T23:00:42.739Z,97787.41
2022-11-08T23:02:47.092Z,97791.69
2022-11-08T23:04:50.378Z,97785.75
2022-11-08T23:06:53.642Z,97786.81
2022-11-08T23:08:56.971Z,97774.72
2022-11-08T23:11:20.685Z,97769.72
2022-11-08T23:13:42.709Z,97760.34
2022-11-08T23:16:03.397Z,97759.50
2022-11-08T23:18:06.814Z,97759.63
2022-11-08T23:20:28.261Z,97741.38
2022-11-08T23:22:49.100Z,97759.84
2022-11-08T23:24:52.553Z,97760.69
2022-11-08T23:27:13.074Z,97755.56
2022-11-08T23:29:34.731Z,97752.50
2022-11-08T23:31:37.853Z,97745.84
2022-11-08T23:33:43.829Z,97765.28
2022-11-08T23:36:00.711Z,97758.38
2022-11-08T23:38:04.049Z,97772.41
2022-11-08T23:40:26.848Z,97776.88
2022-11-08T23:42:47.673Z,97776.16
2022-11-08T23:44:52.099Z,97770.94
2022-11-08T23:46:56.756Z,97775.47
2022-11-08T23:48:59.772Z,97766.78
2022-11-08T23:51:02.908Z,97770.94
2022-11-08T23:53:06.333Z,97762.19
2022-11-08T23:55:10.387Z,97753.41
2022-11-08T23:57:13.336Z,97770.72
2022-11-08T23:59:16.857Z,97770.72
